sensor_id;sensor_type;location;lat;lon;timestamp;P1;durP1;ratioP1;P2;durP2;ratioP2
19810;SDS011;10065;49.632;8.346;2023-01-10T00:01:42;3.63;;;0.90;;
19810;SDS011;10065;49.632;8.346;2023-01-10T00:04:10;3.47;;;0.97;;
19810;SDS011;10065;49.632;8.346;2023-01-10T00:06:38;1.60;;;0.70;;
19810;SDS011;10065;49.632;8.346;2023-01-10T00:09:08;1.67;;;0.73;;
19810;SDS011;10065;49.632;8.346;2023-01-10T00:11:36;2.30;;;0.90;;
19810;SDS011;10065;49.632;8.346;2023-01-10T00:14:21;2.37;;;0.80;;
19810;SDS011;10065;49.632;8.346;2023-01-10T00:16:49;4.93;;;0.90;;
19810;SDS011;10065;49.632;8.346;2023-01-10T00:19:21;1.90;;;0.83;;
19810;SDS011;10065;49.632;8.346;2023-01-10T00:21:49;2.33;;;0.80;;
19810;SDS011;10065;49.632;8.346;2023-01-10T00:24:18;2.83;;;0.63;;
19810;SDS011;10065;49.632;8.346;2023-01-10T00:26:47;2.80;;;0.80;;
19810;SDS011;10065;49.632;8.346;2023-01-10T00:29:17;2.10;;;0.63;;
19810;SDS011;10065;49.632;8.346;2023-01-10T00:31:45;2.30;;;0.67;;
19810;SDS011;10065;49.632;8.346;2023-01-10T00:34:13;0.87;;;0.40;;
19810;SDS011;10065;49.632;8.346;2023-01-10T00:36:41;0.30;;;0.20;;
19810;SDS011;10065;49.632;8.346;2023-01-10T00:39:10;1.97;;;0.30;;
19810;SDS011;10065;49.632;8.346;2023-01-10T00:41:40;1.10;;;0.30;;
19810;SDS011;10065;49.632;8.346;2023-01-10T00:44:25;1.40;;;0.47;;
19810;SDS011;10065;49.632;8.346;2023-01-10T00:46:53;1.07;;;0.30;;
19810;SDS011;10065;49.632;8.346;2023-01-10T00:49:21;0.20;;;0.20;;
19810;SDS011;10065;49.632;8.346;2023-01-10T00:51:49;0.70;;;0.20;;
19810;SDS011;10065;49.632;8.346;2023-01-10T00:54:16;0.13;;;0.10;;
19810;SDS011;10065;49.632;8.346;2023-01-10T00:56:45;0.20;;;0.20;;
19810;SDS011;10065;49.632;8.346;2023-01-10T00:59:13;2.63;;;1.30;;
19810;SDS011;10065;49.632;8.346;2023-01-10T01:01:41;0.67;;;0.20;;
19810;SDS011;10065;49.632;8.346;2023-01-10T01:04:09;1.50;;;0.30;;
19810;SDS011;10065;49.632;8.346;2023-01-10T01:06:37;0.27;;;0.20;;
19810;SDS011;10065;49.632;8.346;2023-01-10T01:09:04;1.47;;;0.60;;
19810;SDS011;10065;49.632;8.346;2023-01-10T01:11:32;1.53;;;0.20;;
19810;SDS011;10065;49.632;8.346;2023-01-10T01:14:01;1.83;;;0.70;;
19810;SDS011;10065;49.632;8.346;2023-01-10T01:16:29;0.50;;;0.23;;
19810;SDS011;10065;49.632;8.346;2023-01-10T01:18:57;1.57;;;0.67;;
19810;SDS011;10065;49.632;8.346;2023-01-10T01:21:25;1.70;;;0.50;;
19810;SDS011;10065;49.632;8.346;2023-01-10T01:23:53;1.83;;;0.47;;
19810;SDS011;10065;49.632;8.346;2023-01-10T01:26:22;1.50;;;0.30;;
19810;SDS011;10065;49.632;8.346;2023-01-10T01:28:50;2.17;;;0.40;;
19810;SDS011;10065;49.632;8.346;2023-01-10T01:31:20;2.00;;;0.40;;
19810;SDS011;10065;49.632;8.346;2023-01-10T01:33:48;2.03;;;0.43;;
19810;SDS011;10065;49.632;8.346;2023-01-10T01:36:16;2.03;;;0.50;;
19810;SDS011;10065;49.632;8.346;2023-01-10T01:38:45;1.43;;;0.90;;
19810;SDS011;10065;49.632;8.346;2023-01-10T01:41:12;2.30;;;0.50;;
19810;SDS011;10065;49.632;8.346;2023-01-10T01:44:00;1.43;;;0.30;;
19810;SDS011;10065;49.632;8.346;2023-01-10T01:46:31;1.20;;;0.50;;
19810;SDS011;10065;49.632;8.346;2023-01-10T01:49:02;1.57;;;0.30;;
19810;SDS011;10065;49.632;8.346;2023-01-10T01:51:32;0.97;;;0.37;;
19810;SDS011;10065;49.632;8.346;2023-01-10T01:54:02;1.90;;;0.60;;
19810;SDS011;10065;49.632;8.346;2023-01-10T01:56:33;2.10;;;0.53;;
19810;SDS011;10065;49.632;8.346;2023-01-10T01:59:08;2.93;;;0.40;;
19810;SDS011;10065;49.632;8.346;2023-01-10T02:01:41;2.97;;;0.30;;
19810;SDS011;10065;49.632;8.346;2023-01-10T02:04:14;2.77;;;0.67;;
19810;SDS011;10065;49.632;8.346;2023-01-10T02:06:45;2.00;;;0.60;;
19810;SDS011;10065;49.632;8.346;2023-01-10T02:09:17;2.57;;;0.50;;
19810;SDS011;10065;49.632;8.346;2023-01-10T02:11:50;1.93;;;0.53;;
19810;SDS011;10065;49.632;8.346;2023-01-10T02:14:17;4.47;;;0.60;;
19810;SDS011;10065;49.632;8.346;2023-01-10T02:16:48;1.13;;;0.47;;
19810;SDS011;10065;49.632;8.346;2023-01-10T02:19:17;1.53;;;0.40;;
19810;SDS011;10065;49.632;8.346;2023-01-10T02:21:57;2.33;;;0.50;;
19810;SDS011;10065;49.632;8.346;2023-01-10T02:28:09;1.90;;;0.50;;
19810;SDS011;10065;49.632;8.346;2023-01-10T02:31:00;3.37;;;0.73;;
19810;SDS011;10065;49.632;8.346;2023-01-10T02:33:48;3.53;;;1.13;;
19810;SDS011;10065;49.632;8.346;2023-01-10T02:36:25;3.27;;;0.67;;
19810;SDS011;10065;49.632;8.346;2023-01-10T02:39:03;1.40;;;0.40;;
19810;SDS011;10065;49.632;8.346;2023-01-10T02:41:38;3.73;;;0.77;;
19810;SDS011;10065;49.632;8.346;2023-01-10T02:44:13;3.30;;;0.70;;
19810;SDS011;10065;49.632;8.346;2023-01-10T02:46:46;3.60;;;0.70;;
19810;SDS011;10065;49.632;8.346;2023-01-10T02:49:17;4.10;;;1.17;;
19810;SDS011;10065;49.632;8.346;2023-01-10T02:51:45;2.57;;;0.77;;
19810;SDS011;10065;49.632;8.346;2023-01-10T02:54:13;5.50;;;0.87;;
19810;SDS011;10065;49.632;8.346;2023-01-10T02:59:49;3.67;;;1.10;;
19810;SDS011;10065;49.632;8.346;2023-01-10T03:02:56;4.60;;;0.90;;
19810;SDS011;10065;49.632;8.346;2023-01-10T03:05:39;4.33;;;0.90;;
19810;SDS011;10065;49.632;8.346;2023-01-10T03:08:18;5.67;;;0.87;;
19810;SDS011;10065;49.632;8.346;2023-01-10T03:10:55;7.63;;;1.00;;
19810;SDS011;10065;49.632;8.346;2023-01-10T03:13:26;2.73;;;0.67;;
19810;SDS011;10065;49.632;8.346;2023-01-10T03:15:57;6.53;;;0.80;;
19810;SDS011;10065;49.632;8.346;2023-01-10T03:18:30;4.53;;;0.90;;
19810;SDS011;10065;49.632;8.346;2023-01-10T03:21:02;3.50;;;0.83;;
19810;SDS011;10065;49.632;8.346;2023-01-10T03:23:32;5.60;;;0.90;;
19810;SDS011;10065;49.632;8.346;2023-01-10T03:26:01;3.87;;;1.20;;
19810;SDS011;10065;49.632;8.346;2023-01-10T03:28:31;6.40;;;1.10;;
19810;SDS011;10065;49.632;8.346;2023-01-10T03:31:05;5.30;;;1.00;;
19810;SDS011;10065;49.632;8.346;2023-01-10T03:33:36;6.07;;;1.50;;
19810;SDS011;10065;49.632;8.346;2023-01-10T03:36:08;3.03;;;1.00;;
19810;SDS011;10065;49.632;8.346;2023-01-10T03:38:43;5.00;;;1.40;;
19810;SDS011;10065;49.632;8.346;2023-01-10T03:41:16;5.17;;;1.10;;
19810;SDS011;10065;49.632;8.346;2023-01-10T03:43:52;5.47;;;1.20;;
19810;SDS011;10065;49.632;8.346;2023-01-10T03:46:45;5.30;;;1.00;;
19810;SDS011;10065;49.632;8.346;2023-01-10T03:49:17;4.87;;;0.90;;
19810;SDS011;10065;49.632;8.346;2023-01-10T03:51:50;3.00;;;0.80;;
19810;SDS011;10065;49.632;8.346;2023-01-10T03:54:20;5.37;;;1.10;;
19810;SDS011;10065;49.632;8.346;2023-01-10T03:56:48;7.10;;;1.30;;
19810;SDS011;10065;49.632;8.346;2023-01-10T03:59:18;3.57;;;1.10;;
19810;SDS011;10065;49.632;8.346;2023-01-10T04:01:50;4.97;;;1.23;;
19810;SDS011;10065;49.632;8.346;2023-01-10T04:04:18;4.00;;;1.13;;
19810;SDS011;10065;49.632;8.346;2023-01-10T04:06:46;4.70;;;1.10;;
19810;SDS011;10065;49.632;8.346;2023-01-10T04:09:15;6.70;;;1.10;;
19810;SDS011;10065;49.632;8.346;2023-01-10T04:11:43;5.50;;;1.67;;
19810;SDS011;10065;49.632;8.346;2023-01-10T04:14:11;6.03;;;1.10;;
19810;SDS011;10065;49.632;8.346;2023-01-10T04:16:39;5.67;;;1.10;;
19810;SDS011;10065;49.632;8.346;2023-01-10T04:19:06;3.33;;;0.90;;
19810;SDS011;10065;49.632;8.346;2023-01-10T04:21:34;3.40;;;1.03;;
19810;SDS011;10065;49.632;8.346;2023-01-10T04:24:02;3.20;;;1.10;;
19810;SDS011;10065;49.632;8.346;2023-01-10T04:26:31;6.50;;;1.47;;
19810;SDS011;10065;49.632;8.346;2023-01-10T04:28:59;4.83;;;1.17;;
19810;SDS011;10065;49.632;8.346;2023-01-10T04:31:27;3.50;;;1.27;;
19810;SDS011;10065;49.632;8.346;2023-01-10T04:33:55;3.87;;;1.20;;
19810;SDS011;10065;49.632;8.346;2023-01-10T04:36:22;4.83;;;1.00;;
19810;SDS011;10065;49.632;8.346;2023-01-10T04:38:50;6.77;;;1.70;;
19810;SDS011;10065;49.632;8.346;2023-01-10T04:41:18;5.47;;;1.10;;
19810;SDS011;10065;49.632;8.346;2023-01-10T04:43:47;5.40;;;1.10;;
19810;SDS011;10065;49.632;8.346;2023-01-10T04:46:15;3.20;;;1.40;;
19810;SDS011;10065;49.632;8.346;2023-01-10T04:48:43;9.50;;;1.60;;
19810;SDS011;10065;49.632;8.346;2023-01-10T04:51:10;7.87;;;1.97;;
19810;SDS011;10065;49.632;8.346;2023-01-10T04:53:38;7.53;;;2.03;;
19810;SDS011;10065;49.632;8.346;2023-01-10T04:56:07;6.30;;;2.47;;
19810;SDS011;10065;49.632;8.346;2023-01-10T04:58:36;7.37;;;2.40;;
19810;SDS011;10065;49.632;8.346;2023-01-10T05:01:09;8.40;;;2.30;;
19810;SDS011;10065;49.632;8.346;2023-01-10T05:03:38;6.73;;;2.07;;
19810;SDS011;10065;49.632;8.346;2023-01-10T05:06:06;9.47;;;2.30;;
19810;SDS011;10065;49.632;8.346;2023-01-10T05:08:34;8.33;;;1.97;;
19810;SDS011;10065;49.632;8.346;2023-01-10T05:11:02;6.87;;;1.97;;
19810;SDS011;10065;49.632;8.346;2023-01-10T05:13:30;8.87;;;2.50;;
19810;SDS011;10065;49.632;8.346;2023-01-10T05:15:58;4.97;;;1.70;;
19810;SDS011;10065;49.632;8.346;2023-01-10T05:18:28;6.80;;;1.97;;
19810;SDS011;10065;49.632;8.346;2023-01-10T05:20:58;9.70;;;2.10;;
19810;SDS011;10065;49.632;8.346;2023-01-10T05:23:26;6.63;;;2.17;;
19810;SDS011;10065;49.632;8.346;2023-01-10T05:25:55;7.13;;;2.00;;
19810;SDS011;10065;49.632;8.346;2023-01-10T05:28:22;12.27;;;2.60;;
19810;SDS011;10065;49.632;8.346;2023-01-10T05:30:51;10.60;;;4.20;;
19810;SDS011;10065;49.632;8.346;2023-01-10T05:33:18;13.10;;;3.60;;
19810;SDS011;10065;49.632;8.346;2023-01-10T05:35:47;10.97;;;2.57;;
19810;SDS011;10065;49.632;8.346;2023-01-10T05:38:15;8.73;;;2.23;;
19810;SDS011;10065;49.632;8.346;2023-01-10T05:40:43;6.23;;;1.77;;
19810;SDS011;10065;49.632;8.346;2023-01-10T05:43:10;10.70;;;2.17;;
19810;SDS011;10065;49.632;8.346;2023-01-10T05:45:38;12.23;;;2.13;;
19810;SDS011;10065;49.632;8.346;2023-01-10T05:48:06;10.50;;;1.80;;
19810;SDS011;10065;49.632;8.346;2023-01-10T05:50:34;12.33;;;1.67;;
19810;SDS011;10065;49.632;8.346;2023-01-10T05:53:03;9.47;;;1.90;;
19810;SDS011;10065;49.632;8.346;2023-01-10T05:55:32;9.87;;;2.13;;
19810;SDS011;10065;49.632;8.346;2023-01-10T05:58:00;11.60;;;2.37;;
19810;SDS011;10065;49.632;8.346;2023-01-10T06:00:28;10.50;;;2.10;;
19810;SDS011;10065;49.632;8.346;2023-01-10T06:02:56;15.10;;;2.50;;
19810;SDS011;10065;49.632;8.346;2023-01-10T06:05:24;14.27;;;2.67;;
19810;SDS011;10065;49.632;8.346;2023-01-10T06:07:52;9.97;;;1.77;;
19810;SDS011;10065;49.632;8.346;2023-01-10T06:10:21;11.00;;;2.37;;
19810;SDS011;10065;49.632;8.346;2023-01-10T06:12:50;11.20;;;2.13;;
19810;SDS011;10065;49.632;8.346;2023-01-10T06:15:17;11.93;;;2.10;;
19810;SDS011;10065;49.632;8.346;2023-01-10T06:17:45;8.33;;;2.00;;
19810;SDS011;10065;49.632;8.346;2023-01-10T06:20:13;15.73;;;2.87;;
19810;SDS011;10065;49.632;8.346;2023-01-10T06:22:42;10.83;;;2.03;;
19810;SDS011;10065;49.632;8.346;2023-01-10T06:25:10;11.77;;;2.33;;
19810;SDS011;10065;49.632;8.346;2023-01-10T06:27:41;8.07;;;2.50;;
19810;SDS011;10065;49.632;8.346;2023-01-10T06:30:10;13.10;;;2.27;;
19810;SDS011;10065;49.632;8.346;2023-01-10T06:32:38;13.13;;;2.53;;
19810;SDS011;10065;49.632;8.346;2023-01-10T06:35:07;12.60;;;2.33;;
19810;SDS011;10065;49.632;8.346;2023-01-10T06:37:36;12.23;;;2.23;;
19810;SDS011;10065;49.632;8.346;2023-01-10T06:40:05;12.53;;;2.33;;
19810;SDS011;10065;49.632;8.346;2023-01-10T06:42:33;17.03;;;2.50;;
19810;SDS011;10065;49.632;8.346;2023-01-10T06:45:03;9.00;;;2.67;;
19810;SDS011;10065;49.632;8.346;2023-01-10T06:47:31;17.03;;;3.07;;
19810;SDS011;10065;49.632;8.346;2023-01-10T06:49:59;12.10;;;2.90;;
19810;SDS011;10065;49.632;8.346;2023-01-10T06:52:26;12.23;;;2.77;;
19810;SDS011;10065;49.632;8.346;2023-01-10T06:54:55;12.90;;;2.77;;
19810;SDS011;10065;49.632;8.346;2023-01-10T06:57:23;12.50;;;2.63;;
19810;SDS011;10065;49.632;8.346;2023-01-10T06:59:50;8.03;;;2.23;;
19810;SDS011;10065;49.632;8.346;2023-01-10T07:02:19;12.93;;;2.50;;
19810;SDS011;10065;49.632;8.346;2023-01-10T07:04:47;14.03;;;2.70;;
19810;SDS011;10065;49.632;8.346;2023-01-10T07:07:15;9.60;;;2.60;;
19810;SDS011;10065;49.632;8.346;2023-01-10T07:09:43;13.97;;;2.57;;
19810;SDS011;10065;49.632;8.346;2023-01-10T07:12:11;12.10;;;2.30;;
19810;SDS011;10065;49.632;8.346;2023-01-10T07:14:39;15.80;;;3.57;;
19810;SDS011;10065;49.632;8.346;2023-01-10T07:17:07;23.77;;;5.83;;
19810;SDS011;10065;49.632;8.346;2023-01-10T07:19:37;15.03;;;2.60;;
19810;SDS011;10065;49.632;8.346;2023-01-10T07:22:05;11.53;;;2.33;;
19810;SDS011;10065;49.632;8.346;2023-01-10T07:24:33;13.17;;;3.60;;
19810;SDS011;10065;49.632;8.346;2023-01-10T07:27:00;19.67;;;5.10;;
19810;SDS011;10065;49.632;8.346;2023-01-10T07:29:28;11.83;;;2.87;;
19810;SDS011;10065;49.632;8.346;2023-01-10T07:31:56;16.90;;;6.00;;
19810;SDS011;10065;49.632;8.346;2023-01-10T07:34:24;10.93;;;2.70;;
19810;SDS011;10065;49.632;8.346;2023-01-10T07:36:53;16.20;;;3.23;;
19810;SDS011;10065;49.632;8.346;2023-01-10T07:39:21;10.47;;;2.93;;
19810;SDS011;10065;49.632;8.346;2023-01-10T07:41:48;8.27;;;2.20;;
19810;SDS011;10065;49.632;8.346;2023-01-10T07:44:18;14.23;;;2.93;;
19810;SDS011;10065;49.632;8.346;2023-01-10T07:46:45;16.70;;;2.60;;
19810;SDS011;10065;49.632;8.346;2023-01-10T07:49:13;11.73;;;2.60;;
19810;SDS011;10065;49.632;8.346;2023-01-10T07:51:41;13.90;;;2.50;;
19810;SDS011;10065;49.632;8.346;2023-01-10T07:54:10;12.93;;;3.23;;
19810;SDS011;10065;49.632;8.346;2023-01-10T07:56:40;9.23;;;2.50;;
19810;SDS011;10065;49.632;8.346;2023-01-10T07:59:07;13.37;;;2.30;;
19810;SDS011;10065;49.632;8.346;2023-01-10T08:01:35;7.30;;;2.23;;
19810;SDS011;10065;49.632;8.346;2023-01-10T08:04:03;12.53;;;2.93;;
19810;SDS011;10065;49.632;8.346;2023-01-10T08:06:31;13.30;;;2.93;;
19810;SDS011;10065;49.632;8.346;2023-01-10T08:08:59;13.10;;;2.47;;
19810;SDS011;10065;49.632;8.346;2023-01-10T08:11:30;10.70;;;2.27;;
19810;SDS011;10065;49.632;8.346;2023-01-10T08:13:58;13.37;;;2.77;;
19810;SDS011;10065;49.632;8.346;2023-01-10T08:16:26;12.17;;;3.40;;
19810;SDS011;10065;49.632;8.346;2023-01-10T08:18:53;23.17;;;10.00;;
19810;SDS011;10065;49.632;8.346;2023-01-10T08:21:21;21.07;;;5.77;;
19810;SDS011;10065;49.632;8.346;2023-01-10T08:23:49;10.60;;;2.50;;
19810;SDS011;10065;49.632;8.346;2023-01-10T08:26:17;10.90;;;2.40;;
19810;SDS011;10065;49.632;8.346;2023-01-10T08:28:47;11.47;;;2.87;;
19810;SDS011;10065;49.632;8.346;2023-01-10T08:31:15;11.63;;;2.80;;
19810;SDS011;10065;49.632;8.346;2023-01-10T08:33:42;17.83;;;3.00;;
19810;SDS011;10065;49.632;8.346;2023-01-10T08:36:14;11.43;;;3.13;;
19810;SDS011;10065;49.632;8.346;2023-01-10T08:38:43;11.00;;;2.87;;
19810;SDS011;10065;49.632;8.346;2023-01-10T08:41:11;17.63;;;4.90;;
19810;SDS011;10065;49.632;8.346;2023-01-10T08:43:38;17.40;;;3.33;;
19810;SDS011;10065;49.632;8.346;2023-01-10T08:46:08;11.17;;;2.67;;
19810;SDS011;10065;49.632;8.346;2023-01-10T08:48:36;13.47;;;2.30;;
19810;SDS011;10065;49.632;8.346;2023-01-10T08:51:05;14.03;;;2.77;;
19810;SDS011;10065;49.632;8.346;2023-01-10T08:53:34;11.00;;;2.37;;
19810;SDS011;10065;49.632;8.346;2023-01-10T08:56:02;12.90;;;2.80;;
19810;SDS011;10065;49.632;8.346;2023-01-10T08:58:31;10.93;;;2.13;;
19810;SDS011;10065;49.632;8.346;2023-01-10T09:00:59;12.33;;;2.47;;
19810;SDS011;10065;49.632;8.346;2023-01-10T09:03:31;13.53;;;2.57;;
19810;SDS011;10065;49.632;8.346;2023-01-10T09:05:59;12.63;;;3.03;;
19810;SDS011;10065;49.632;8.346;2023-01-10T09:08:27;11.27;;;2.00;;
19810;SDS011;10065;49.632;8.346;2023-01-10T09:10:56;11.03;;;2.10;;
19810;SDS011;10065;49.632;8.346;2023-01-10T09:13:24;8.00;;;2.03;;
19810;SDS011;10065;49.632;8.346;2023-01-10T09:15:52;14.90;;;3.43;;
19810;SDS011;10065;49.632;8.346;2023-01-10T09:18:22;13.70;;;3.27;;
19810;SDS011;10065;49.632;8.346;2023-01-10T09:20:51;10.40;;;2.90;;
19810;SDS011;10065;49.632;8.346;2023-01-10T09:23:20;11.77;;;3.20;;
19810;SDS011;10065;49.632;8.346;2023-01-10T09:25:49;7.27;;;2.40;;
19810;SDS011;10065;49.632;8.346;2023-01-10T09:28:18;12.20;;;2.63;;
19810;SDS011;10065;49.632;8.346;2023-01-10T09:30:46;13.40;;;2.70;;
19810;SDS011;10065;49.632;8.346;2023-01-10T09:33:14;13.50;;;2.73;;
19810;SDS011;10065;49.632;8.346;2023-01-10T09:35:42;11.10;;;2.90;;
19810;SDS011;10065;49.632;8.346;2023-01-10T09:38:12;12.27;;;2.83;;
19810;SDS011;10065;49.632;8.346;2023-01-10T09:40:48;14.40;;;2.90;;
19810;SDS011;10065;49.632;8.346;2023-01-10T09:43:29;10.90;;;2.97;;
19810;SDS011;10065;49.632;8.346;2023-01-10T09:46:10;11.93;;;2.97;;
19810;SDS011;10065;49.632;8.346;2023-01-10T09:48:45;12.50;;;2.50;;
19810;SDS011;10065;49.632;8.346;2023-01-10T09:51:22;24.53;;;12.23;;
19810;SDS011;10065;49.632;8.346;2023-01-10T09:54:02;12.90;;;3.47;;
19810;SDS011;10065;49.632;8.346;2023-01-10T09:56:38;11.83;;;2.80;;
19810;SDS011;10065;49.632;8.346;2023-01-10T09:59:08;16.50;;;2.77;;
19810;SDS011;10065;49.632;8.346;2023-01-10T10:01:40;11.57;;;3.57;;
19810;SDS011;10065;49.632;8.346;2023-01-10T10:04:13;10.87;;;2.67;;
19810;SDS011;10065;49.632;8.346;2023-01-10T10:06:47;10.60;;;2.27;;
19810;SDS011;10065;49.632;8.346;2023-01-10T10:09:17;15.90;;;2.73;;
19810;SDS011;10065;49.632;8.346;2023-01-10T10:11:52;10.70;;;2.60;;
19810;SDS011;10065;49.632;8.346;2023-01-10T10:14:33;13.60;;;3.00;;
19810;SDS011;10065;49.632;8.346;2023-01-10T10:17:15;11.43;;;2.90;;
19810;SDS011;10065;49.632;8.346;2023-01-10T10:19:59;11.30;;;2.83;;
19810;SDS011;10065;49.632;8.346;2023-01-10T10:22:41;13.13;;;2.60;;
19810;SDS011;10065;49.632;8.346;2023-01-10T10:25:22;12.17;;;2.83;;
19810;SDS011;10065;49.632;8.346;2023-01-10T10:28:11;15.30;;;3.20;;
19810;SDS011;10065;49.632;8.346;2023-01-10T10:30:59;18.10;;;2.93;;
19810;SDS011;10065;49.632;8.346;2023-01-10T10:33:38;15.30;;;2.90;;
19810;SDS011;10065;49.632;8.346;2023-01-10T10:36:14;16.63;;;2.67;;
19810;SDS011;10065;49.632;8.346;2023-01-10T10:38:49;13.20;;;3.00;;
19810;SDS011;10065;49.632;8.346;2023-01-10T10:41:23;11.47;;;3.00;;
19810;SDS011;10065;49.632;8.346;2023-01-10T10:43:58;18.67;;;3.60;;
19810;SDS011;10065;49.632;8.346;2023-01-10T10:46:30;17.47;;;2.87;;
19810;SDS011;10065;49.632;8.346;2023-01-10T10:48:58;16.23;;;3.03;;
19810;SDS011;10065;49.632;8.346;2023-01-10T10:51:33;11.23;;;2.67;;
19810;SDS011;10065;49.632;8.346;2023-01-10T10:54:09;18.47;;;4.63;;
19810;SDS011;10065;49.632;8.346;2023-01-10T10:56:40;19.27;;;5.10;;
19810;SDS011;10065;49.632;8.346;2023-01-10T10:59:09;18.83;;;3.17;;
19810;SDS011;10065;49.632;8.346;2023-01-10T11:01:43;11.27;;;2.67;;
19810;SDS011;10065;49.632;8.346;2023-01-10T11:04:14;15.80;;;3.00;;
19810;SDS011;10065;49.632;8.346;2023-01-10T11:06:45;15.70;;;3.43;;
19810;SDS011;10065;49.632;8.346;2023-01-10T11:09:15;15.03;;;2.87;;
19810;SDS011;10065;49.632;8.346;2023-01-10T11:11:47;19.10;;;3.57;;
19810;SDS011;10065;49.632;8.346;2023-01-10T11:17:16;19.60;;;2.97;;
19810;SDS011;10065;49.632;8.346;2023-01-10T11:19:53;19.47;;;3.30;;
19810;SDS011;10065;49.632;8.346;2023-01-10T11:22:22;17.33;;;3.03;;
19810;SDS011;10065;49.632;8.346;2023-01-10T11:24:52;14.27;;;2.40;;
19810;SDS011;10065;49.632;8.346;2023-01-10T11:27:23;14.50;;;3.20;;
19810;SDS011;10065;49.632;8.346;2023-01-10T11:29:54;13.20;;;3.10;;
19810;SDS011;10065;49.632;8.346;2023-01-10T11:32:29;12.90;;;2.90;;
19810;SDS011;10065;49.632;8.346;2023-01-10T11:35:00;13.27;;;2.87;;
19810;SDS011;10065;49.632;8.346;2023-01-10T11:37:32;13.87;;;3.90;;
19810;SDS011;10065;49.632;8.346;2023-01-10T11:40:15;12.47;;;2.83;;
19810;SDS011;10065;49.632;8.346;2023-01-10T11:42:47;13.43;;;3.13;;
19810;SDS011;10065;49.632;8.346;2023-01-10T11:45:23;14.43;;;2.90;;
19810;SDS011;10065;49.632;8.346;2023-01-10T11:48:06;14.70;;;2.80;;
19810;SDS011;10065;49.632;8.346;2023-01-10T11:50:37;16.03;;;3.17;;
19810;SDS011;10065;49.632;8.346;2023-01-10T11:53:29;14.30;;;3.33;;
19810;SDS011;10065;49.632;8.346;2023-01-10T11:56:00;11.13;;;2.67;;
19810;SDS011;10065;49.632;8.346;2023-01-10T11:58:30;11.53;;;2.57;;
19810;SDS011;10065;49.632;8.346;2023-01-10T12:01:00;12.50;;;2.77;;
19810;SDS011;10065;49.632;8.346;2023-01-10T12:03:29;12.43;;;3.03;;
19810;SDS011;10065;49.632;8.346;2023-01-10T12:06:02;15.00;;;2.60;;
19810;SDS011;10065;49.632;8.346;2023-01-10T12:08:33;10.07;;;2.40;;
19810;SDS011;10065;49.632;8.346;2023-01-10T12:11:03;10.33;;;2.30;;
19810;SDS011;10065;49.632;8.346;2023-01-10T12:13:47;15.97;;;3.20;;
19810;SDS011;10065;49.632;8.346;2023-01-10T12:16:17;15.97;;;2.80;;
19810;SDS011;10065;49.632;8.346;2023-01-10T12:18:48;14.50;;;2.53;;
19810;SDS011;10065;49.632;8.346;2023-01-10T12:21:19;15.80;;;2.77;;
19810;SDS011;10065;49.632;8.346;2023-01-10T12:23:52;16.50;;;2.70;;
19810;SDS011;10065;49.632;8.346;2023-01-10T12:26:24;11.43;;;2.10;;
19810;SDS011;10065;49.632;8.346;2023-01-10T12:28:55;13.73;;;2.17;;
19810;SDS011;10065;49.632;8.346;2023-01-10T12:31:27;14.10;;;2.00;;
19810;SDS011;10065;49.632;8.346;2023-01-10T12:33:58;11.87;;;2.37;;
19810;SDS011;10065;49.632;8.346;2023-01-10T12:36:41;15.53;;;2.30;;
19810;SDS011;10065;49.632;8.346;2023-01-10T12:39:18;10.10;;;2.10;;
19810;SDS011;10065;49.632;8.346;2023-01-10T12:41:51;15.13;;;2.90;;
19810;SDS011;10065;49.632;8.346;2023-01-10T12:44:50;16.60;;;3.03;;
19810;SDS011;10065;49.632;8.346;2023-01-10T12:47:27;11.40;;;2.53;;
19810;SDS011;10065;49.632;8.346;2023-01-10T12:49:59;16.90;;;2.90;;
19810;SDS011;10065;49.632;8.346;2023-01-10T12:52:34;13.33;;;2.23;;
19810;SDS011;10065;49.632;8.346;2023-01-10T12:55:13;11.00;;;2.53;;
19810;SDS011;10065;49.632;8.346;2023-01-10T12:57:43;21.47;;;3.10;;
19810;SDS011;10065;49.632;8.346;2023-01-10T13:00:19;12.80;;;2.40;;
19810;SDS011;10065;49.632;8.346;2023-01-10T13:02:51;12.97;;;2.87;;
19810;SDS011;10065;49.632;8.346;2023-01-10T13:05:21;16.13;;;2.63;;
19810;SDS011;10065;49.632;8.346;2023-01-10T13:07:52;17.20;;;2.20;;
19810;SDS011;10065;49.632;8.346;2023-01-10T13:10:25;10.40;;;2.30;;
19810;SDS011;10065;49.632;8.346;2023-01-10T13:12:55;17.83;;;2.60;;
19810;SDS011;10065;49.632;8.346;2023-01-10T13:15:31;11.93;;;2.30;;
19810;SDS011;10065;49.632;8.346;2023-01-10T13:18:02;12.83;;;2.63;;
19810;SDS011;10065;49.632;8.346;2023-01-10T13:20:36;13.70;;;2.77;;
19810;SDS011;10065;49.632;8.346;2023-01-10T13:23:14;22.53;;;3.40;;
19810;SDS011;10065;49.632;8.346;2023-01-10T13:25:52;11.77;;;2.27;;
19810;SDS011;10065;49.632;8.346;2023-01-10T13:28:23;14.10;;;1.93;;
19810;SDS011;10065;49.632;8.346;2023-01-10T13:30:54;10.57;;;2.73;;
19810;SDS011;10065;49.632;8.346;2023-01-10T13:33:24;15.17;;;2.80;;
19810;SDS011;10065;49.632;8.346;2023-01-10T13:35:55;20.13;;;2.80;;
19810;SDS011;10065;49.632;8.346;2023-01-10T13:38:26;14.27;;;2.90;;
19810;SDS011;10065;49.632;8.346;2023-01-10T13:41:03;15.93;;;2.77;;
19810;SDS011;10065;49.632;8.346;2023-01-10T13:43:59;11.77;;;2.47;;
19810;SDS011;10065;49.632;8.346;2023-01-10T13:46:33;19.10;;;3.73;;
19810;SDS011;10065;49.632;8.346;2023-01-10T13:55:21;16.53;;;3.17;;
19810;SDS011;10065;49.632;8.346;2023-01-10T13:57:53;14.17;;;3.13;;
19810;SDS011;10065;49.632;8.346;2023-01-10T14:00:24;17.63;;;3.23;;
19810;SDS011;10065;49.632;8.346;2023-01-10T14:03:42;15.63;;;2.90;;
19810;SDS011;10065;49.632;8.346;2023-01-10T14:06:32;13.57;;;2.77;;
19810;SDS011;10065;49.632;8.346;2023-01-10T14:12:01;9.07;;;2.77;;
19810;SDS011;10065;49.632;8.346;2023-01-10T14:14:31;14.40;;;3.60;;
19810;SDS011;10065;49.632;8.346;2023-01-10T14:17:11;12.00;;;3.13;;
19810;SDS011;10065;49.632;8.346;2023-01-10T14:19:43;18.80;;;2.67;;
19810;SDS011;10065;49.632;8.346;2023-01-10T14:22:23;20.87;;;2.70;;
19810;SDS011;10065;49.632;8.346;2023-01-10T14:24:56;15.60;;;2.47;;
19810;SDS011;10065;49.632;8.346;2023-01-10T14:27:26;18.00;;;2.53;;
19810;SDS011;10065;49.632;8.346;2023-01-10T14:30:00;12.77;;;2.33;;
19810;SDS011;10065;49.632;8.346;2023-01-10T14:32:32;19.10;;;2.27;;
19810;SDS011;10065;49.632;8.346;2023-01-10T14:35:05;18.20;;;3.00;;
19810;SDS011;10065;49.632;8.346;2023-01-10T14:37:36;15.37;;;3.57;;
19810;SDS011;10065;49.632;8.346;2023-01-10T14:40:23;15.17;;;3.33;;
19810;SDS011;10065;49.632;8.346;2023-01-10T14:42:54;16.40;;;3.43;;
19810;SDS011;10065;49.632;8.346;2023-01-10T14:45:29;15.87;;;2.03;;
19810;SDS011;10065;49.632;8.346;2023-01-10T14:48:16;14.27;;;2.80;;
19810;SDS011;10065;49.632;8.346;2023-01-10T14:50:50;9.03;;;2.00;;
19810;SDS011;10065;49.632;8.346;2023-01-10T14:53:24;14.30;;;2.27;;
19810;SDS011;10065;49.632;8.346;2023-01-10T14:55:53;11.00;;;2.17;;
19810;SDS011;10065;49.632;8.346;2023-01-10T14:58:21;17.30;;;2.63;;
19810;SDS011;10065;49.632;8.346;2023-01-10T15:00:49;16.17;;;2.53;;
19810;SDS011;10065;49.632;8.346;2023-01-10T15:03:19;9.50;;;2.27;;
19810;SDS011;10065;49.632;8.346;2023-01-10T15:05:50;10.37;;;2.67;;
19810;SDS011;10065;49.632;8.346;2023-01-10T15:08:19;17.50;;;2.93;;
19810;SDS011;10065;49.632;8.346;2023-01-10T15:10:50;16.07;;;4.40;;
19810;SDS011;10065;49.632;8.346;2023-01-10T15:13:22;12.70;;;2.50;;
19810;SDS011;10065;49.632;8.346;2023-01-10T15:15:53;13.70;;;2.57;;
19810;SDS011;10065;49.632;8.346;2023-01-10T15:18:27;14.17;;;2.27;;
19810;SDS011;10065;49.632;8.346;2023-01-10T15:20:59;15.73;;;2.30;;
19810;SDS011;10065;49.632;8.346;2023-01-10T15:23:34;9.50;;;2.40;;
19810;SDS011;10065;49.632;8.346;2023-01-10T15:26:03;11.80;;;2.43;;